Time;durP1;ratioP1;P1;durP2;ratioP2;P2;SDS_P1;SDS_P2;PMS_P1;PMS_P2;Temp;Humidity;BMP_temperature;BMP_pressure;BME280_temperature;BME280_humidity;BME280_pressure;Samples;Min_cycle;Max_cycle;Signal;HPM_P1;HPM_P2
2022/08/14 00:02:06;;;;;;;0.50;0.30;;;22.10;99.90;;;;;;5074071;28;20446;-78
2022/08/14 00:04:35;;;;;;;0.50;0.30;;;22.10;99.90;;;;;;5073801;28;20486;-77
2022/08/14 00:07:01;;;;;;;0.50;0.30;;;22.00;99.90;;;;;;5073878;28;20456;-77
2022/08/14 00:09:28;;;;;;;0.50;0.30;;;22.10;99.90;;;;;;5074267;28;20809;-77
2022/08/14 00:11:55;;;;;;;0.50;0.30;;;22.00;99.90;;;;;;5073592;28;20448;-77
2022/08/14 00:14:25;;;;;;;0.50;0.30;;;21.90;99.90;;;;;;5073569;28;20844;-77
2022/08/14 00:16:52;;;;;;;0.50;0.30;;;21.80;99.90;;;;;;5073989;28;20466;-77
2022/08/14 00:19:19;;;;;;;0.50;0.30;;;21.70;99.90;;;;;;5073688;28;20513;-77
2022/08/14 00:21:46;;;;;;;0.50;0.30;;;21.60;99.90;;;;;;5073683;28;20432;-77
2022/08/14 00:24:13;;;;;;;0.50;0.40;;;21.60;99.90;;;;;;5073236;28;20480;-77
2022/08/14 00:26:39;;;;;;;0.50;0.30;;;21.60;99.90;;;;;;5073509;28;20555;-77
2022/08/14 00:29:06;;;;;;;0.53;0.40;;;21.50;99.90;;;;;;5073919;28;20437;-77
2022/08/14 00:31:34;;;;;;;0.50;0.30;;;21.40;99.90;;;;;;5073621;28;20530;-76
2022/08/14 00:34:01;;;;;;;0.50;0.40;;;21.30;99.90;;;;;;5072973;28;20432;-77
2022/08/14 00:36:28;;;;;;;0.50;0.30;;;21.10;99.90;;;;;;5073145;28;21019;-75
2022/08/14 00:38:55;;;;;;;0.50;0.30;;;21.00;99.90;;;;;;5073648;28;20467;-77
2022/08/14 00:41:22;;;;;;;0.50;0.30;;;21.00;99.90;;;;;;5072997;28;20771;-77
2022/08/14 00:43:49;;;;;;;0.50;0.40;;;21.00;99.90;;;;;;5072924;28;20519;-76
2022/08/14 00:46:16;;;;;;;0.50;0.30;;;20.90;99.90;;;;;;5073192;28;20440;-77
2022/08/14 00:48:44;;;;;;;0.50;0.30;;;20.80;99.90;;;;;;5073384;28;20442;-76
2022/08/14 00:51:11;;;;;;;1.07;0.97;;;20.70;99.90;;;;;;5073467;28;20441;-76
2022/08/14 00:53:38;;;;;;;0.50;0.30;;;20.70;99.90;;;;;;5072861;28;20428;-77
2022/08/14 00:56:07;;;;;;;0.50;0.30;;;20.60;99.90;;;;;;5072765;28;20451;-74
2022/08/14 00:58:34;;;;;;;0.50;0.40;;;20.50;99.90;;;;;;5072892;28;20444;-77
2022/08/14 01:01:04;;;;;;;0.50;0.30;;;20.50;99.90;;;;;;5072529;28;20867;-77
2022/08/14 01:03:38;;;;;;;0.50;0.30;;;20.50;99.90;;;;;;5072968;28;20490;-77
2022/08/14 01:06:09;;;;;;;0.50;0.30;;;20.50;99.90;;;;;;5072891;28;20447;-74
2022/08/14 01:08:38;;;;;;;0.50;0.30;;;20.50;99.90;;;;;;5072527;28;20816;-77
2022/08/14 01:11:06;;;;;;;0.50;0.30;;;20.50;99.90;;;;;;5072871;28;20471;-77
2022/08/14 01:13:35;;;;;;;0.50;0.40;;;20.40;99.90;;;;;;5072877;28;20443;-78
2022/08/14 01:16:04;;;;;;;0.50;0.30;;;20.40;99.90;;;;;;5072382;28;20440;-76
2022/08/14 01:21:24;;;;;;;0.50;0.30;;;20.30;99.90;;;;;;5072759;28;20430;-77
2022/08/14 01:23:53;;;;;;;0.50;0.30;;;20.20;99.90;;;;;;5072427;28;20463;-77
2022/08/14 01:26:22;;;;;;;0.50;0.40;;;20.20;99.90;;;;;;5072423;28;20944;-77
2022/08/14 01:28:54;;;;;;;0.50;0.30;;;20.20;99.90;;;;;;5072255;28;20462;-75
2022/08/14 01:31:22;;;;;;;0.50;0.30;;;20.20;99.90;;;;;;5072072;28;20909;-77
2022/08/14 01:33:55;;;;;;;0.50;0.30;;;20.10;99.90;;;;;;5072152;28;20446;-76
2022/08/14 01:36:23;;;;;;;0.50;0.30;;;20.10;99.90;;;;;;5072539;28;20452;-77
2022/08/14 01:38:56;;;;;;;0.50;0.30;;;20.10;99.90;;;;;;5072425;28;20428;-76
2022/08/14 01:41:25;;;;;;;0.50;0.30;;;20.00;99.90;;;;;;5072331;28;20874;-76
2022/08/14 01:43:54;;;;;;;0.50;0.30;;;20.00;99.90;;;;;;5071993;28;20613;-74
2022/08/14 01:46:23;;;;;;;0.50;0.30;;;20.00;99.90;;;;;;5072228;28;20447;-77
2022/08/14 01:48:52;;;;;;;0.50;0.30;;;20.00;99.90;;;;;;5072092;28;20443;-77
2022/08/14 01:51:23;;;;;;;0.50;0.30;;;19.90;99.90;;;;;;5071819;28;20444;-75
2022/08/14 01:53:53;;;;;;;0.50;0.30;;;19.90;99.90;;;;;;5071462;28;20438;-76
2022/08/14 01:56:22;;;;;;;0.50;0.30;;;19.90;99.90;;;;;;5071982;28;20466;-77
2022/08/14 01:58:50;;;;;;;0.50;0.30;;;19.90;99.90;;;;;;5071158;28;20535;-75
2022/08/14 02:01:18;;;;;;;0.50;0.30;;;19.90;99.90;;;;;;5071725;28;20880;-76
2022/08/14 02:03:46;;;;;;;0.50;0.40;;;19.90;99.90;;;;;;5071649;28;20868;-76
2022/08/14 02:06:14;;;;;;;0.50;0.30;;;19.80;99.90;;;;;;5071503;28;20444;-77
2022/08/14 02:08:41;;;;;;;0.50;0.40;;;19.80;99.90;;;;;;5071632;28;20941;-77
2022/08/14 02:11:17;;;;;;;0.50;0.30;;;19.90;99.90;;;;;;5071378;28;20444;-77
2022/08/14 02:13:46;;;;;;;0.50;0.33;;;19.80;99.90;;;;;;5071513;28;20439;-74
2022/08/14 02:16:15;;;;;;;0.50;0.30;;;19.70;99.90;;;;;;5071843;28;20892;-77
2022/08/14 02:18:42;;;;;;;0.50;0.30;;;19.70;99.90;;;;;;5071347;28;20964;-77
2022/08/14 02:21:09;;;;;;;0.50;0.30;;;19.70;99.90;;;;;;5071710;28;20444;-77
2022/08/14 02:23:36;;;;;;;0.50;0.30;;;19.70;99.90;;;;;;5071070;28;20506;-77
2022/08/14 02:26:17;;;;;;;0.60;0.30;;;19.70;99.90;;;;;;5071186;28;20599;-77
2022/08/14 02:28:45;;;;;;;0.50;0.30;;;19.70;99.90;;;;;;5071329;28;20955;-77
2022/08/14 02:31:12;;;;;;;0.50;0.30;;;19.70;99.90;;;;;;5071421;28;20447;-75
2022/08/14 02:33:40;;;;;;;0.50;0.40;;;19.70;99.90;;;;;;5071329;28;20451;-77
2022/08/14 02:36:08;;;;;;;0.50;0.30;;;19.70;99.90;;;;;;5071131;28;20803;-76
2022/08/14 02:38:35;;;;;;;0.50;0.30;;;19.60;99.90;;;;;;5071507;28;20440;-77
2022/08/14 02:41:02;;;;;;;0.50;0.30;;;19.60;99.90;;;;;;5071171;28;20936;-77
2022/08/14 02:43:31;;;;;;;0.50;0.40;;;19.60;99.90;;;;;;5071647;28;20472;-77
2022/08/14 02:45:59;;;;;;;0.50;0.30;;;19.50;99.90;;;;;;5070926;28;20510;-77
2022/08/14 02:48:34;;;;;;;0.50;0.40;;;19.50;99.90;;;;;;5071004;28;20982;-76
2022/08/14 02:51:03;;;;;;;0.50;0.30;;;19.40;99.90;;;;;;5071090;28;20531;-76
2022/08/14 02:53:31;;;;;;;0.50;0.30;;;19.40;99.90;;;;;;5071230;28;20440;-77
2022/08/14 02:55:58;;;;;;;0.50;0.30;;;19.40;99.90;;;;;;5071063;28;20876;-77
2022/08/14 02:58:25;;;;;;;0.50;0.30;;;19.30;99.90;;;;;;5070903;28;20456;-76
2022/08/14 03:00:54;;;;;;;0.50;0.30;;;19.30;99.90;;;;;;5070910;28;20442;-76
2022/08/14 03:03:22;;;;;;;0.50;0.40;;;19.30;99.90;;;;;;5070821;28;20479;-77
2022/08/14 03:05:51;;;;;;;0.50;0.30;;;19.30;99.90;;;;;;5070775;28;20440;-77
2022/08/14 03:08:19;;;;;;;0.50;0.30;;;19.20;99.90;;;;;;5071244;28;20486;-77
2022/08/14 03:10:47;;;;;;;0.50;0.30;;;19.20;99.90;;;;;;5071321;28;20436;-77
2022/08/14 03:13:14;;;;;;;0.50;0.40;;;19.20;99.90;;;;;;5070685;28;20444;-76
2022/08/14 03:15:43;;;;;;;0.50;0.40;;;19.20;99.90;;;;;;5070511;28;20535;-77
2022/08/14 03:18:12;;;;;;;0.50;0.30;;;19.10;99.90;;;;;;5071069;28;20984;-74
2022/08/14 03:20:39;;;;;;;0.50;0.30;;;19.10;99.90;;;;;;5070979;28;20443;-77
2022/08/14 03:23:06;;;;;;;0.50;0.40;;;19.10;99.90;;;;;;5071379;28;20450;-77
2022/08/14 03:25:34;;;;;;;0.50;0.30;;;19.00;99.90;;;;;;5070466;28;20488;-77
2022/08/14 03:28:03;;;;;;;0.50;0.40;;;19.00;99.90;;;;;;5070957;28;20466;-77
2022/08/14 03:30:31;;;;;;;0.50;0.30;;;19.00;99.90;;;;;;5070383;28;20440;-77
2022/08/14 03:32:58;;;;;;;0.50;0.30;;;18.90;99.90;;;;;;5071084;28;20501;-77
2022/08/14 03:35:26;;;;;;;0.50;0.30;;;18.90;99.90;;;;;;5071825;28;20439;-76
2022/08/14 03:37:53;;;;;;;0.50;0.30;;;18.90;99.90;;;;;;5075083;28;20468;-76
2022/08/14 03:40:21;;;;;;;0.50;0.30;;;18.90;99.90;;;;;;5074731;28;20505;-76
2022/08/14 03:42:49;;;;;;;0.50;0.30;;;18.90;99.90;;;;;;5075084;28;20446;-77
2022/08/14 03:45:16;;;;;;;0.50;0.40;;;18.90;99.90;;;;;;5073768;28;20478;-77
2022/08/14 03:47:43;;;;;;;0.50;0.33;;;18.90;99.90;;;;;;5074335;28;20467;-78
2022/08/14 03:50:11;;;;;;;0.67;0.67;;;18.90;99.90;;;;;;5074319;28;20436;-77
2022/08/14 03:52:39;;;;;;;0.50;0.40;;;18.90;99.90;;;;;;5074150;28;20561;-77
2022/08/14 03:55:11;;;;;;;0.50;0.30;;;18.90;99.90;;;;;;5074038;28;20527;-77
2022/08/14 03:57:38;;;;;;;0.50;0.40;;;18.90;99.90;;;;;;5073491;28;21243;-79
2022/08/14 04:00:09;;;;;;;0.50;0.30;;;18.90;99.90;;;;;;5074183;28;20805;-77
2022/08/14 04:02:37;;;;;;;0.50;0.30;;;18.90;99.90;;;;;;5074426;28;20424;-77
2022/08/14 04:05:04;;;;;;;0.50;0.30;;;18.90;99.90;;;;;;5073689;28;20480;-77
2022/08/14 04:07:32;;;;;;;0.50;0.30;;;18.80;99.90;;;;;;5073688;28;20464;-77
2022/08/14 04:10:00;;;;;;;0.50;0.40;;;18.90;99.90;;;;;;5074182;28;20444;-78
2022/08/14 04:12:27;;;;;;;0.50;0.30;;;18.90;99.90;;;;;;5073704;28;20441;-76
2022/08/14 04:14:54;;;;;;;0.50;0.30;;;18.80;99.90;;;;;;5073569;28;20435;-76
2022/08/14 04:17:20;;;;;;;0.50;0.30;;;18.80;99.90;;;;;;5073804;28;20614;-78
2022/08/14 04:19:47;;;;;;;0.60;0.57;;;18.80;99.90;;;;;;5074088;28;20447;-77
2022/08/14 04:22:14;;;;;;;0.50;0.30;;;18.70;99.90;;;;;;5073994;28;20436;-77
2022/08/14 04:24:43;;;;;;;0.50;0.30;;;18.70;99.90;;;;;;5073127;28;20474;-77
2022/08/14 04:27:12;;;;;;;0.50;0.30;;;18.70;99.90;;;;;;5073531;28;20510;-77
2022/08/14 04:29:40;;;;;;;0.50;0.30;;;18.70;99.90;;;;;;5073741;28;20490;-77
2022/08/14 04:32:08;;;;;;;0.50;0.30;;;18.70;99.90;;;;;;5074293;28;20505;-78
2022/08/14 04:34:36;;;;;;;1.87;1.77;;;18.70;99.90;;;;;;5073324;28;20429;-78
2022/08/14 04:45:17;;;;;;;0.50;0.30;;;18.80;99.90;;;;;;5072751;28;20964;-77
2022/08/14 04:50:29;;;;;;;0.50;0.30;;;18.90;99.90;;;;;;5073343;28;20399;-77
2022/08/14 04:52:55;;;;;;;0.50;0.30;;;18.90;99.90;;;;;;5072970;28;20482;-77
2022/08/14 04:55:23;;;;;;;0.50;0.30;;;18.90;99.90;;;;;;5072686;28;20868;-76
2022/08/14 04:57:51;;;;;;;0.50;0.30;;;19.00;99.90;;;;;;5072427;28;20525;-78
2022/08/14 05:00:18;;;;;;;0.50;0.30;;;19.00;99.90;;;;;;5073009;28;20446;-78
2022/08/14 05:02:45;;;;;;;0.50;0.30;;;19.00;99.90;;;;;;5072895;28;20436;-77
2022/08/14 05:05:12;;;;;;;0.50;0.30;;;19.10;99.90;;;;;;5072739;28;20834;-76
2022/08/14 05:07:41;;;;;;;0.50;0.40;;;19.10;99.90;;;;;;5072895;28;20458;-77
2022/08/14 05:10:09;;;;;;;0.50;0.30;;;19.20;99.90;;;;;;5072444;28;20452;-77
2022/08/14 05:12:38;;;;;;;0.50;0.30;;;19.30;99.90;;;;;;5073181;28;20440;-77
2022/08/14 05:15:09;;;;;;;0.50;0.30;;;19.30;99.90;;;;;;5072376;28;20443;-78
2022/08/14 05:17:41;;;;;;;0.50;0.40;;;19.40;99.90;;;;;;5072599;28;20460;-77
2022/08/14 05:20:09;;;;;;;0.50;0.30;;;19.50;99.90;;;;;;5072666;28;20442;-77
2022/08/14 05:22:36;;;;;;;0.50;0.40;;;19.60;99.90;;;;;;5072604;28;20930;-77
2022/08/14 05:25:04;;;;;;;0.50;0.30;;;19.70;99.90;;;;;;5072163;28;20566;-77
2022/08/14 05:27:31;;;;;;;0.50;0.30;;;19.80;99.90;;;;;;5072485;28;20546;-77
2022/08/14 05:29:58;;;;;;;0.50;0.30;;;19.90;99.90;;;;;;5072367;28;20438;-77
2022/08/14 05:32:26;;;;;;;0.50;0.40;;;20.00;99.90;;;;;;5072284;28;20448;-77
2022/08/14 05:34:56;;;;;;;4.93;1.07;;;20.10;99.90;;;;;;5071713;28;20957;-77
2022/08/14 05:37:23;;;;;;;0.50;0.40;;;20.20;99.90;;;;;;5071900;28;20989;-77
2022/08/14 05:39:50;;;;;;;0.50;0.40;;;20.30;99.90;;;;;;5072250;28;20451;-76
2022/08/14 05:42:17;;;;;;;0.50;0.30;;;20.40;99.90;;;;;;5072451;28;20446;-75
2022/08/14 05:44:43;;;;;;;1.10;1.10;;;20.40;99.90;;;;;;5071583;28;20490;-77
2022/08/14 05:47:10;;;;;;;0.50;0.40;;;20.50;99.90;;;;;;5072238;28;20492;-75
2022/08/14 05:49:38;;;;;;;0.50;0.37;;;20.60;99.90;;;;;;5072124;28;20473;-77
2022/08/14 05:52:05;;;;;;;0.50;0.40;;;20.70;99.90;;;;;;5072174;28;20444;-78
2022/08/14 05:54:32;;;;;;;0.50;0.30;;;20.80;99.90;;;;;;5071940;28;20429;-77
2022/08/14 05:56:59;;;;;;;0.50;0.33;;;21.00;99.90;;;;;;5071535;28;20462;-74
2022/08/14 05:59:26;;;;;;;0.50;0.30;;;21.10;99.90;;;;;;5070617;28;20440;-77
2022/08/14 06:01:52;;;;;;;0.50;0.30;;;21.20;99.90;;;;;;5071684;28;20440;-77
2022/08/14 06:04:20;;;;;;;0.50;0.30;;;21.40;99.90;;;;;;5071810;28;20440;-73
2022/08/14 06:06:48;;;;;;;0.60;0.40;;;21.80;99.90;;;;;;5071550;28;20464;-77
2022/08/14 06:09:14;;;;;;;0.50;0.30;;;22.90;99.90;;;;;;5071976;28;20440;-78
2022/08/14 06:11:41;;;;;;;0.60;0.40;;;23.80;99.90;;;;;;5071596;28;20531;-77
2022/08/14 06:14:09;;;;;;;0.50;0.30;;;24.60;99.90;;;;;;5071272;28;20464;-77
2022/08/14 06:16:36;;;;;;;0.50;0.30;;;25.70;99.90;;;;;;5071580;28;20482;-78
2022/08/14 06:19:05;;;;;;;0.80;0.47;;;27.00;99.90;;;;;;5071893;28;20527;-78
2022/08/14 06:21:32;;;;;;;0.50;0.30;;;28.00;99.90;;;;;;5071561;28;20904;-77
2022/08/14 06:24:00;;;;;;;0.50;0.30;;;28.90;97.40;;;;;;5071191;28;20471;-78
2022/08/14 06:26:27;;;;;;;0.50;0.40;;;29.70;93.80;;;;;;5071249;28;20472;-77
2022/08/14 06:28:53;;;;;;;0.50;0.30;;;30.40;90.50;;;;;;5071312;28;20444;-78
2022/08/14 06:31:21;;;;;;;0.50;0.30;;;31.20;85.00;;;;;;5071852;28;20531;-77
2022/08/14 06:33:48;;;;;;;0.50;0.30;;;31.90;79.70;;;;;;5071163;28;20447;-76
2022/08/14 06:36:18;;;;;;;4.40;1.17;;;32.50;75.70;;;;;;5071421;28;21006;-77
2022/08/14 06:38:46;;;;;;;0.90;0.70;;;33.30;73.20;;;;;;5071407;28;20420;-77
2022/08/14 06:41:14;;;;;;;0.50;0.40;;;33.90;70.00;;;;;;5071148;28;20436;-76
2022/08/14 06:43:41;;;;;;;0.60;0.50;;;34.70;68.20;;;;;;5071248;28;20447;-78
2022/08/14 06:46:08;;;;;;;0.50;0.30;;;35.30;63.50;;;;;;5071231;28;20996;-75
2022/08/14 06:48:35;;;;;;;0.50;0.30;;;35.80;61.00;;;;;;5071097;28;20444;-77
2022/08/14 06:51:01;;;;;;;0.50;0.30;;;36.00;59.40;;;;;;5071066;28;20479;-78
2022/08/14 06:53:28;;;;;;;0.50;0.30;;;36.00;58.80;;;;;;5071315;28;20527;-78
2022/08/14 06:55:56;;;;;;;0.50;0.30;;;36.40;57.70;;;;;;5071198;28;20858;-78
2022/08/14 06:58:24;;;;;;;0.60;0.60;;;36.30;57.40;;;;;;5070903;28;20464;-77
2022/08/14 07:06:20;;;;;;;0.50;0.30;;;36.90;56.00;;;;;;5070929;28;20467;-77
2022/08/14 07:08:46;;;;;;;0.50;0.30;;;37.00;55.80;;;;;;5070958;28;20475;-78
2022/08/14 07:11:13;;;;;;;0.50;0.40;;;36.80;55.70;;;;;;5075122;28;20454;-74
2022/08/14 07:13:42;;;;;;;0.63;0.50;;;37.10;55.50;;;;;;5075129;28;20531;-78
2022/08/14 07:16:11;;;;;;;0.50;0.50;;;37.70;55.20;;;;;;5074621;28;20917;-75
2022/08/14 07:18:40;;;;;;;0.70;0.70;;;38.10;54.20;;;;;;5075070;28;20436;-78
2022/08/14 07:21:08;;;;;;;0.50;0.30;;;37.90;53.50;;;;;;5074929;28;20810;-78
2022/08/14 07:23:35;;;;;;;0.60;0.57;;;38.10;53.50;;;;;;5074899;28;20440;-78
2022/08/14 07:26:05;;;;;;;0.87;0.87;;;38.80;52.80;;;;;;5074371;28;20478;-78
2022/08/14 07:28:34;;;;;;;0.40;0.30;;;38.20;52.20;;;;;;5074725;28;20442;-78
2022/08/14 07:31:04;;;;;;;0.40;0.30;;;39.10;53.00;;;;;;5075110;28;20518;-78
2022/08/14 07:33:34;;;;;;;0.40;0.30;;;38.40;52.50;;;;;;5075041;28;20864;-78
2022/08/14 07:36:05;;;;;;;0.40;0.30;;;39.50;52.80;;;;;;5074197;28;20910;-78
2022/08/14 07:38:31;;;;;;;2.57;0.87;;;40.20;51.20;;;;;;5074392;28;20466;-78
2022/08/14 07:40:58;;;;;;;0.70;0.70;;;40.70;50.00;;;;;;5074352;28;20825;-78
2022/08/14 07:43:26;;;;;;;0.40;0.30;;;40.50;49.50;;;;;;5074518;28;20451;-78
2022/08/14 07:45:53;;;;;;;0.40;0.30;;;40.40;50.00;;;;;;5074054;28;21106;-78
2022/08/14 07:48:21;;;;;;;0.40;0.30;;;41.00;49.60;;;;;;5073932;28;20456;-78
2022/08/14 07:50:49;;;;;;;0.40;0.30;;;41.00;49.50;;;;;;5074328;28;20444;-78
2022/08/14 07:53:16;;;;;;;0.40;0.30;;;41.00;48.50;;;;;;5074285;28;20498;-78
2022/08/14 07:55:44;;;;;;;1.60;0.57;;;41.00;49.00;;;;;;5073958;28;20437;-78
2022/08/14 07:58:10;;;;;;;0.40;0.30;;;41.40;48.70;;;;;;5073632;28;21004;-74
2022/08/14 08:00:38;;;;;;;0.50;0.40;;;41.70;47.70;;;;;;5073763;28;20447;-78
2022/08/14 08:03:08;;;;;;;0.67;0.67;;;41.60;48.00;;;;;;5074456;28;20507;-78
2022/08/14 08:05:38;;;;;;;0.40;0.30;;;42.20;47.60;;;;;;5073779;28;20456;-78
2022/08/14 08:08:06;;;;;;;2.00;1.90;;;42.40;47.10;;;;;;5073960;28;20569;-78
2022/08/14 08:10:35;;;;;;;0.40;0.30;;;42.90;46.70;;;;;;5073750;28;20959;-78
2022/08/14 08:13:04;;;;;;;0.40;0.30;;;42.60;45.70;;;;;;5074054;28;20436;-78
2022/08/14 08:15:35;;;;;;;0.40;0.30;;;41.90;45.90;;;;;;5073466;28;20441;-78
2022/08/14 08:18:03;;;;;;;2.40;2.20;;;41.90;47.40;;;;;;5073898;28;20495;-78
2022/08/14 08:20:31;;;;;;;0.40;0.30;;;41.40;46.50;;;;;;5073203;28;20952;-78
2022/08/14 08:23:01;;;;;;;0.40;0.30;;;41.10;47.10;;;;;;5073384;28;20436;-77
2022/08/14 08:25:30;;;;;;;0.50;0.50;;;40.90;47.30;;;;;;5073921;28;20844;-78
2022/08/14 08:27:59;;;;;;;0.60;0.60;;;41.10;47.60;;;;;;5073098;28;20460;-78
2022/08/14 08:30:27;;;;;;;0.60;0.60;;;41.10;47.10;;;;;;5073890;28;20428;-78
2022/08/14 08:32:55;;;;;;;0.40;0.30;;;41.70;46.60;;;;;;5073446;28;20451;-77
2022/08/14 08:35:24;;;;;;;0.40;0.30;;;42.30;46.00;;;;;;5073499;28;20428;-74
2022/08/14 08:37:52;;;;;;;0.40;0.30;;;42.70;46.10;;;;;;5073026;28;20482;-78
2022/08/14 08:40:24;;;;;;;0.40;0.30;;;42.80;45.20;;;;;;5073340;28;20440;-79
2022/08/14 08:42:52;;;;;;;0.50;0.50;;;43.00;44.60;;;;;;5073442;28;20951;-78
2022/08/14 08:45:20;;;;;;;0.40;0.30;;;42.90;44.40;;;;;;5072908;28;20873;-78
2022/08/14 08:47:47;;;;;;;0.40;0.30;;;42.40;44.70;;;;;;5072825;28;20544;-79
2022/08/14 08:50:23;;;;;;;0.40;0.30;;;42.70;44.50;;;;;;5073087;28;20448;-74
2022/08/14 08:52:52;;;;;;;0.87;0.87;;;43.00;44.70;;;;;;5073132;28;20444;-78
2022/08/14 08:55:28;;;;;;;0.40;0.30;;;43.30;44.30;;;;;;5072880;28;20432;-78
2022/08/14 08:57:57;;;;;;;4.03;2.00;;;42.80;44.30;;;;;;5072577;28;20464;-78
2022/08/14 09:00:24;;;;;;;0.40;0.30;;;43.20;44.50;;;;;;5073224;28;20446;-78
2022/08/14 09:02:56;;;;;;;0.67;0.57;;;42.90;43.80;;;;;;5072745;28;20447;-78
2022/08/14 09:05:24;;;;;;;0.40;0.30;;;41.80;44.50;;;;;;5072466;28;21101;-74
2022/08/14 09:07:51;;;;;;;1.23;1.20;;;42.00;44.80;;;;;;5072614;28;20460;-78
2022/08/14 09:10:18;;;;;;;0.50;0.50;;;42.30;44.70;;;;;;5073337;28;20451;-78
2022/08/14 09:12:47;;;;;;;0.40;0.30;;;42.40;44.20;;;;;;5072568;28;20484;-76
2022/08/14 09:15:14;;;;;;;0.40;0.30;;;42.70;43.90;;;;;;5072251;28;20925;-76
2022/08/14 09:17:42;;;;;;;0.97;0.97;;;43.20;44.00;;;;;;5072567;28;20972;-76
2022/08/14 09:20:09;;;;;;;0.40;0.30;;;43.50;43.50;;;;;;5072802;28;20436;-76
2022/08/14 09:22:36;;;;;;;2.33;1.60;;;42.90;42.80;;;;;;5072882;28;20436;-76
2022/08/14 09:25:05;;;;;;;0.50;0.50;;;43.00;43.30;;;;;;5072188;28;20440;-76
2022/08/14 09:27:32;;;;;;;0.40;0.30;;;42.80;43.80;;;;;;5072272;28;20472;-76
2022/08/14 09:30:00;;;;;;;0.70;0.70;;;42.40;43.80;;;;;;5072430;28;20440;-76
2022/08/14 09:32:45;;;;;;;0.40;0.30;;;42.10;44.30;;;;;;5072435;28;20929;-76
2022/08/14 09:35:17;;;;;;;0.40;0.30;;;42.80;43.80;;;;;;5071955;28;20806;-76
2022/08/14 09:37:58;;;;;;;0.60;0.40;;;43.40;43.30;;;;;;5071915;28;20476;-76
2022/08/14 09:40:38;;;;;;;0.40;0.30;;;43.90;42.30;;;;;;5132292;22;20475;-76
2022/08/14 09:43:14;;;;;;;0.57;0.57;;;44.20;42.20;;;;;;5082173;28;20865;-75
2022/08/14 09:45:46;;;;;;;0.40;0.30;;;44.50;41.90;;;;;;5090446;28;20473;-76
2022/08/14 09:48:16;;;;;;;0.40;0.30;;;44.90;42.30;;;;;;5092203;28;20446;-76
2022/08/14 09:50:48;;;;;;;0.40;0.30;;;45.70;41.10;;;;;;5092168;28;20455;-76
2022/08/14 09:53:18;;;;;;;0.73;0.73;;;45.90;40.40;;;;;;5092067;28;20497;-76
2022/08/14 09:55:45;;;;;;;1.43;1.33;;;45.80;39.70;;;;;;5091242;28;20442;-76
2022/08/14 09:58:14;;;;;;;0.40;0.30;;;45.20;40.80;;;;;;5092349;28;20807;-76
2022/08/14 10:00:47;;;;;;;0.40;0.30;;;45.50;39.90;;;;;;5091897;28;20459;-76
2022/08/14 10:03:26;;;;;;;0.50;0.40;;;45.50;39.70;;;;;;5091980;28;20419;-76
2022/08/14 10:06:08;;;;;;;0.40;0.30;;;45.50;38.60;;;;;;5091341;28;20467;-75
2022/08/14 10:08:44;;;;;;;0.77;0.77;;;45.00;38.70;;;;;;5092418;28;20719;-75
2022/08/14 10:11:16;;;;;;;0.40;0.30;;;45.20;39.20;;;;;;5091244;28;20434;-76
2022/08/14 10:13:43;;;;;;;0.40;0.30;;;45.40;38.70;;;;;;5092264;28;20443;-76
2022/08/14 10:16:13;;;;;;;0.40;0.30;;;45.60;39.00;;;;;;5091741;28;20431;-76
2022/08/14 10:18:40;;;;;;;0.40;0.30;;;45.90;38.90;;;;;;5091797;28;20443;-76
2022/08/14 10:21:10;;;;;;;0.40;0.30;;;45.00;39.60;;;;;;5091529;28;20462;-75
2022/08/14 10:23:46;;;;;;;0.40;0.30;;;45.70;39.50;;;;;;5091991;28;20435;-74
2022/08/14 10:26:16;;;;;;;1.53;0.93;;;46.00;38.80;;;;;;5091607;28;20474;-75
2022/08/14 10:28:46;;;;;;;0.40;0.30;;;44.40;38.70;;;;;;5092603;28;20839;-76
2022/08/14 10:31:22;;;;;;;0.40;0.30;;;44.40;39.70;;;;;;5091801;28;20457;-76
2022/08/14 10:34:04;;;;;;;0.40;0.30;;;45.00;39.70;;;;;;5091393;28;20431;-76
2022/08/14 10:36:33;;;;;;;0.40;0.30;;;45.50;38.60;;;;;;5092201;28;20435;-76
2022/08/14 10:39:01;;;;;;;0.63;0.63;;;45.40;38.80;;;;;;5091544;28;20471;-75
2022/08/14 10:41:38;;;;;;;2.10;0.80;;;44.80;38.10;;;;;;5091701;28;21015;-76
2022/08/14 10:44:07;;;;;;;0.40;0.30;;;45.00;38.10;;;;;;5091235;28;20443;-76
2022/08/14 10:46:41;;;;;;;0.40;0.30;;;45.30;39.00;;;;;;5091485;28;20844;-76
2022/08/14 10:49:17;;;;;;;0.40;0.30;;;45.20;38.60;;;;;;5091423;28;20454;-76
2022/08/14 10:51:58;;;;;;;0.40;0.30;;;45.50;38.60;;;;;;5091650;28;20430;-77
2022/08/14 10:54:31;;;;;;;0.40;0.30;;;44.80;38.70;;;;;;5091027;28;20455;-79
2022/08/14 10:56:58;;;;;;;0.40;0.30;;;45.00;38.50;;;;;;5091865;28;20499;-74
2022/08/14 10:59:26;;;;;;;0.60;0.60;;;44.60;38.80;;;;;;5091666;28;20550;-74
2022/08/14 11:01:55;;;;;;;0.60;0.60;;;43.80;38.80;;;;;;5091591;28;20442;-76
2022/08/14 11:04:27;;;;;;;0.63;0.63;;;43.40;39.60;;;;;;5090551;28;20435;-76
2022/08/14 11:06:54;;;;;;;0.40;0.30;;;43.90;39.70;;;;;;5091499;28;20452;-75
2022/08/14 11:09:21;;;;;;;0.40;0.30;;;44.10;39.10;;;;;;5090870;28;20542;-75
2022/08/14 11:11:54;;;;;;;0.47;0.40;;;44.10;39.70;;;;;;5091558;28;20431;-75
2022/08/14 11:14:21;;;;;;;0.40;0.30;;;43.90;39.40;;;;;;5090516;28;20439;-75
2022/08/14 11:16:50;;;;;;;0.73;0.73;;;43.50;39.70;;;;;;5091449;28;20431;-76
2022/08/14 11:19:21;;;;;;;0.40;0.30;;;44.30;39.40;;;;;;5090819;28;20459;-75
2022/08/14 11:21:50;;;;;;;0.40;0.30;;;44.60;38.40;;;;;;5091385;28;20424;-76
2022/08/14 11:24:21;;;;;;;0.60;0.53;;;43.70;38.40;;;;;;5090739;28;20539;-75
2022/08/14 11:26:48;;;;;;;0.40;0.30;;;43.60;39.20;;;;;;5091175;28;20467;-76
2022/08/14 11:29:16;;;;;;;0.40;0.30;;;43.40;40.20;;;;;;5091098;28;20451;-75
2022/08/14 11:31:43;;;;;;;0.57;0.57;;;43.60;41.00;;;;;;5091207;28;20449;-76
2022/08/14 11:34:11;;;;;;;0.93;0.83;;;43.70;40.40;;;;;;5090881;28;20436;-75
2022/08/14 11:36:41;;;;;;;0.40;0.30;;;43.50;38.80;;;;;;5091442;28;20484;-76
2022/08/14 11:39:08;;;;;;;1.57;0.67;;;43.40;39.40;;;;;;5090602;28;20498;-75
2022/08/14 11:41:35;;;;;;;0.40;0.30;;;43.70;40.00;;;;;;5090695;28;20530;-75
2022/08/14 11:44:02;;;;;;;0.40;0.30;;;43.70;39.40;;;;;;5090777;28;20518;-75
2022/08/14 11:46:28;;;;;;;0.40;0.30;;;44.40;39.70;;;;;;5090892;28;20828;-76
2022/08/14 11:48:56;;;;;;;0.73;0.60;;;45.10;38.80;;;;;;5090817;28;20854;-76
2022/08/14 11:51:25;;;;;;;0.40;0.30;;;45.00;38.60;;;;;;5090580;28;20446;-75
2022/08/14 11:53:55;;;;;;;0.47;0.30;;;44.90;38.60;;;;;;5090667;28;20457;-74
2022/08/14 11:56:22;;;;;;;0.40;0.30;;;44.50;38.80;;;;;;5091713;28;20736;-76
2022/08/14 11:58:54;;;;;;;0.40;0.30;;;44.30;39.40;;;;;;5094683;28;20532;-76
2022/08/14 12:01:29;;;;;;;0.40;0.37;;;44.20;39.50;;;;;;5094490;28;20886;-75
2022/08/14 12:04:09;;;;;;;0.40;0.30;;;44.90;38.60;;;;;;5093958;28;20435;-72
2022/08/14 12:06:47;;;;;;;0.40;0.30;;;45.40;38.90;;;;;;5094200;28;20558;-75
2022/08/14 12:09:28;;;;;;;0.50;0.50;;;45.00;37.90;;;;;;5094273;28;20509;-77
2022/08/14 12:11:55;;;;;;;0.40;0.30;;;43.40;38.50;;;;;;5094438;28;20423;-76
2022/08/14 12:14:22;;;;;;;0.40;0.30;;;41.70;40.20;;;;;;5094229;28;20440;-76
2022/08/14 12:16:59;;;;;;;0.40;0.30;;;41.60;42.50;;;;;;5093780;28;20444;-77
2022/08/14 12:19:26;;;;;;;0.63;0.63;;;41.30;42.20;;;;;;5094152;28;20459;-77
2022/08/14 12:21:53;;;;;;;0.40;0.30;;;42.20;41.70;;;;;;5093951;28;20526;-75
2022/08/14 12:24:28;;;;;;;0.40;0.30;;;43.00;41.00;;;;;;5093917;28;20435;-75
2022/08/14 12:26:55;;;;;;;0.40;0.30;;;43.40;40.60;;;;;;5093703;28;20545;-75
2022/08/14 12:29:22;;;;;;;0.40;0.30;;;43.90;40.60;;;;;;5093957;28;20455;-76
2022/08/14 12:31:59;;;;;;;0.40;0.30;;;44.50;39.30;;;;;;5093598;28;20932;-74
2022/08/14 12:34:31;;;;;;;0.50;0.47;;;44.40;39.60;;;;;;5093400;28;20445;-77
2022/08/14 12:37:05;;;;;;;0.40;0.30;;;43.30;39.00;;;;;;5093846;28;20416;-73
2022/08/14 12:39:34;;;;;;;0.40;0.30;;;42.70;40.90;;;;;;5093354;28;21190;-76
2022/08/14 12:42:05;;;;;;;0.50;0.40;;;42.20;41.30;;;;;;5093856;28;20439;-77
2022/08/14 12:44:33;;;;;;;0.40;0.40;;;42.00;41.30;;;;;;5093435;28;20530;-77
2022/08/14 12:47:09;;;;;;;0.70;0.70;;;41.30;42.20;;;;;;5093557;28;20491;-77
2022/08/14 12:49:36;;;;;;;0.40;0.30;;;41.50;42.00;;;;;;5093892;28;20974;-77
2022/08/14 12:52:06;;;;;;;0.60;0.60;;;42.00;41.60;;;;;;5093672;28;20994;-77
2022/08/14 12:54:35;;;;;;;0.40;0.30;;;41.80;40.70;;;;;;5093308;28;20779;-77
2022/08/14 12:57:08;;;;;;;0.40;0.30;;;41.40;40.70;;;;;;5093373;28;20463;-76
2022/08/14 12:59:35;;;;;;;0.40;0.30;;;41.80;40.60;;;;;;5093701;28;20446;-76
2022/08/14 13:02:02;;;;;;;0.40;0.30;;;41.50;40.40;;;;;;5093317;28;20458;-74
2022/08/14 13:04:30;;;;;;;0.40;0.30;;;41.30;41.10;;;;;;5092519;28;20443;-78
2022/08/14 13:07:07;;;;;;;0.80;0.77;;;41.90;41.10;;;;;;5092578;28;20471;-77
2022/08/14 13:09:35;;;;;;;0.40;0.30;;;42.30;41.00;;;;;;5093252;28;20463;-76
2022/08/14 13:12:04;;;;;;;0.40;0.30;;;42.50;40.70;;;;;;5093107;28;20526;-77
2022/08/14 13:14:32;;;;;;;1.10;1.10;;;42.60;40.80;;;;;;5092787;28;20944;-77
2022/08/14 13:17:01;;;;;;;0.40;0.30;;;42.50;40.60;;;;;;5092624;28;20439;-77